sensor_id;sensor_type;location;lat;lon;timestamp;temperature;humidity
2054;DHT22;1032;52.542;13.440;2022-10-14T00:01:48;11.60;99.90
2054;DHT22;1032;52.542;13.440;2022-10-14T00:04:15;11.30;99.90
2054;DHT22;1032;52.542;13.440;2022-10-14T00:06:41;11.50;99.90
2054;DHT22;1032;52.542;13.440;2022-10-14T00:09:09;11.60;99.90
2054;DHT22;1032;52.542;13.440;2022-10-14T00:11:37;11.60;99.90
2054;DHT22;1032;52.542;13.440;2022-10-14T00:14:07;11.50;99.90
2054;DHT22;1032;52.542;13.440;2022-10-14T00:16:36;11.70;99.90
2054;DHT22;1032;52.542;13.440;2022-10-14T00:19:03;11.40;99.90
2054;DHT22;1032;52.542;13.440;2022-10-14T00:21:31;11.40;99.90
2054;DHT22;1032;52.542;13.440;2022-10-14T00:23:58;11.50;99.90
2054;DHT22;1032;52.542;13.440;2022-10-14T00:26:26;11.20;99.90
2054;DHT22;1032;52.542;13.440;2022-10-14T00:28:54;11.30;99.90
2054;DHT22;1032;52.542;13.440;2022-10-14T00:31:21;11.40;99.90
2054;DHT22;1032;52.542;13.440;2022-10-14T00:33:48;10.80;99.90
2054;DHT22;1032;52.542;13.440;2022-10-14T00:36:17;11.50;99.90
2054;DHT22;1032;52.542;13.440;2022-10-14T00:38:45;11.10;99.90
2054;DHT22;1032;52.542;13.440;2022-10-14T00:41:14;10.60;99.90
2054;DHT22;1032;52.542;13.440;2022-10-14T00:43:58;11.40;99.90
2054;DHT22;1032;52.542;13.440;2022-10-14T00:46:26;11.00;99.90
2054;DHT22;1032;52.542;13.440;2022-10-14T00:48:58;11.70;99.90
2054;DHT22;1032;52.542;13.440;2022-10-14T00:51:26;11.10;99.90
2054;DHT22;1032;52.542;13.440;2022-10-14T00:53:53;10.70;99.90
2054;DHT22;1032;52.542;13.440;2022-10-14T00:56:23;11.20;99.90
2054;DHT22;1032;52.542;13.440;2022-10-14T00:58:51;11.10;99.90
2054;DHT22;1032;52.542;13.440;2022-10-14T01:01:20;11.00;99.90
2054;DHT22;1032;52.542;13.440;2022-10-14T01:03:46;11.60;99.90
2054;DHT22;1032;52.542;13.440;2022-10-14T01:06:21;10.90;99.90
2054;DHT22;1032;52.542;13.440;2022-10-14T01:08:57;10.60;99.90
2054;DHT22;1032;52.542;13.440;2022-10-14T01:11:32;10.90;99.90
2054;DHT22;1032;52.542;13.440;2022-10-14T01:14:04;11.10;99.90
2054;DHT22;1032;52.542;13.440;2022-10-14T01:16:46;10.50;99.90
2054;DHT22;1032;52.542;13.440;2022-10-14T01:19:35;11.00;99.90
2054;DHT22;1032;52.542;13.440;2022-10-14T01:22:09;10.80;99.90
2054;DHT22;1032;52.542;13.440;2022-10-14T01:24:43;10.80;99.90
2054;DHT22;1032;52.542;13.440;2022-10-14T01:27:37;11.20;99.90
2054;DHT22;1032;52.542;13.440;2022-10-14T01:30:11;11.00;99.90
2054;DHT22;1032;52.542;13.440;2022-10-14T01:32:58;10.90;99.90
2054;DHT22;1032;52.542;13.440;2022-10-14T01:35:40;10.80;99.90
2054;DHT22;1032;52.542;13.440;2022-10-14T01:38:10;10.70;99.90
2054;DHT22;1032;52.542;13.440;2022-10-14T01:40:42;10.80;99.90
2054;DHT22;1032;52.542;13.440;2022-10-14T01:43:12;11.00;99.90
2054;DHT22;1032;52.542;13.440;2022-10-14T01:45:42;10.60;99.90
2054;DHT22;1032;52.542;13.440;2022-10-14T01:48:12;10.90;99.90
2054;DHT22;1032;52.542;13.440;2022-10-14T01:50:44;10.70;99.90
2054;DHT22;1032;52.542;13.440;2022-10-14T01:53:15;10.80;99.90
2054;DHT22;1032;52.542;13.440;2022-10-14T01:55:45;11.00;99.90
2054;DHT22;1032;52.542;13.440;2022-10-14T01:58:15;11.20;99.90
2054;DHT22;1032;52.542;13.440;2022-10-14T02:00:44;10.50;99.90
2054;DHT22;1032;52.542;13.440;2022-10-14T02:03:12;10.80;99.90
2054;DHT22;1032;52.542;13.440;2022-10-14T02:05:43;10.80;99.90
2054;DHT22;1032;52.542;13.440;2022-10-14T02:08:15;10.80;99.90
2054;DHT22;1032;52.542;13.440;2022-10-14T02:10:57;10.60;99.90
2054;DHT22;1032;52.542;13.440;2022-10-14T02:13:37;10.50;99.90
2054;DHT22;1032;52.542;13.440;2022-10-14T02:16:13;10.40;99.90
2054;DHT22;1032;52.542;13.440;2022-10-14T02:18:47;10.60;99.90
2054;DHT22;1032;52.542;13.440;2022-10-14T02:21:20;10.60;99.90
2054;DHT22;1032;52.542;13.440;2022-10-14T02:23:53;11.10;99.90
2054;DHT22;1032;52.542;13.440;2022-10-14T02:26:23;10.70;99.90
2054;DHT22;1032;52.542;13.440;2022-10-14T02:28:51;10.40;99.90
2054;DHT22;1032;52.542;13.440;2022-10-14T02:31:20;10.00;99.90
2054;DHT22;1032;52.542;13.440;2022-10-14T02:33:50;10.50;99.90
2054;DHT22;1032;52.542;13.440;2022-10-14T02:36:21;10.40;99.90
2054;DHT22;1032;52.542;13.440;2022-10-14T02:38:49;10.60;99.90
2054;DHT22;1032;52.542;13.440;2022-10-14T02:41:20;10.60;99.90
2054;DHT22;1032;52.542;13.440;2022-10-14T02:43:48;10.50;99.90
2054;DHT22;1032;52.542;13.440;2022-10-14T02:46:18;10.40;99.90
2054;DHT22;1032;52.542;13.440;2022-10-14T02:48:46;10.60;99.90
2054;DHT22;1032;52.542;13.440;2022-10-14T02:51:13;10.70;99.90
2054;DHT22;1032;52.542;13.440;2022-10-14T02:53:42;10.60;99.90
2054;DHT22;1032;52.542;13.440;2022-10-14T02:56:10;10.50;99.90
2054;DHT22;1032;52.542;13.440;2022-10-14T02:58:37;11.20;99.90
2054;DHT22;1032;52.542;13.440;2022-10-14T03:01:03;10.60;99.90
2054;DHT22;1032;52.542;13.440;2022-10-14T03:03:30;10.90;99.90
2054;DHT22;1032;52.542;13.440;2022-10-14T03:05:58;10.90;99.90
2054;DHT22;1032;52.542;13.440;2022-10-14T03:08:26;10.90;99.90
2054;DHT22;1032;52.542;13.440;2022-10-14T03:10:55;11.00;99.90
2054;DHT22;1032;52.542;13.440;2022-10-14T03:13:22;10.90;99.90
2054;DHT22;1032;52.542;13.440;2022-10-14T03:15:49;10.70;99.90
2054;DHT22;1032;52.542;13.440;2022-10-14T03:18:17;10.80;99.90
2054;DHT22;1032;52.542;13.440;2022-10-14T03:20:46;11.00;99.90
2054;DHT22;1032;52.542;13.440;2022-10-14T03:23:23;11.00;99.90
2054;DHT22;1032;52.542;13.440;2022-10-14T03:25:52;11.10;99.90
2054;DHT22;1032;52.542;13.440;2022-10-14T03:28:31;10.80;99.90
2054;DHT22;1032;52.542;13.440;2022-10-14T03:31:16;11.00;99.90
2054;DHT22;1032;52.542;13.440;2022-10-14T03:33:53;11.10;99.90
2054;DHT22;1032;52.542;13.440;2022-10-14T03:36:19;10.40;99.90
2054;DHT22;1032;52.542;13.440;2022-10-14T03:38:52;10.80;99.90
2054;DHT22;1032;52.542;13.440;2022-10-14T03:41:41;11.10;99.90
2054;DHT22;1032;52.542;13.440;2022-10-14T03:44:10;11.10;99.90
2054;DHT22;1032;52.542;13.440;2022-10-14T03:46:41;10.50;99.90
2054;DHT22;1032;52.542;13.440;2022-10-14T03:49:08;11.30;99.90
2054;DHT22;1032;52.542;13.440;2022-10-14T03:51:35;11.20;99.90
2054;DHT22;1032;52.542;13.440;2022-10-14T03:54:14;11.10;99.90
2054;DHT22;1032;52.542;13.440;2022-10-14T03:56:40;11.50;99.90
2054;DHT22;1032;52.542;13.440;2022-10-14T03:59:07;11.00;99.90
2054;DHT22;1032;52.542;13.440;2022-10-14T04:01:34;11.30;99.90
2054;DHT22;1032;52.542;13.440;2022-10-14T04:04:13;11.10;99.90
2054;DHT22;1032;52.542;13.440;2022-10-14T04:06:39;11.10;99.90
2054;DHT22;1032;52.542;13.440;2022-10-14T04:09:07;11.40;99.90
2054;DHT22;1032;52.542;13.440;2022-10-14T04:11:39;10.90;99.90
2054;DHT22;1032;52.542;13.440;2022-10-14T04:14:09;11.30;99.90
2054;DHT22;1032;52.542;13.440;2022-10-14T04:16:44;10.90;99.90
2054;DHT22;1032;52.542;13.440;2022-10-14T04:19:11;10.40;99.90
2054;DHT22;1032;52.542;13.440;2022-10-14T04:21:40;10.90;99.90
2054;DHT22;1032;52.542;13.440;2022-10-14T04:24:08;10.50;99.90
2054;DHT22;1032;52.542;13.440;2022-10-14T04:26:42;11.00;99.90
2054;DHT22;1032;52.542;13.440;2022-10-14T04:29:20;10.60;99.90
2054;DHT22;1032;52.542;13.440;2022-10-14T04:32:02;10.90;99.90
2054;DHT22;1032;52.542;13.440;2022-10-14T04:34:29;11.10;99.90
2054;DHT22;1032;52.542;13.440;2022-10-14T04:36:56;10.60;99.90
2054;DHT22;1032;52.542;13.440;2022-10-14T04:39:42;10.70;99.90
2054;DHT22;1032;52.542;13.440;2022-10-14T04:42:11;10.80;99.90
2054;DHT22;1032;52.542;13.440;2022-10-14T04:44:39;10.60;99.90
2054;DHT22;1032;52.542;13.440;2022-10-14T04:47:06;11.00;99.90
2054;DHT22;1032;52.542;13.440;2022-10-14T04:49:32;10.90;99.90
2054;DHT22;1032;52.542;13.440;2022-10-14T04:52:07;10.70;99.90
2054;DHT22;1032;52.542;13.440;2022-10-14T04:54:53;10.80;99.90
2054;DHT22;1032;52.542;13.440;2022-10-14T04:57:32;10.80;99.90
2054;DHT22;1032;52.542;13.440;2022-10-14T04:59:59;10.90;99.90
2054;DHT22;1032;52.542;13.440;2022-10-14T05:02:51;10.50;99.90
2054;DHT22;1032;52.542;13.440;2022-10-14T05:05:18;10.80;99.90
2054;DHT22;1032;52.542;13.440;2022-10-14T05:07:49;10.60;99.90
2054;DHT22;1032;52.542;13.440;2022-10-14T05:10:23;11.20;99.90
2054;DHT22;1032;52.542;13.440;2022-10-14T05:12:51;10.80;99.90
2054;DHT22;1032;52.542;13.440;2022-10-14T05:15:20;10.70;99.90
2054;DHT22;1032;52.542;13.440;2022-10-14T05:17:57;11.20;99.90
2054;DHT22;1032;52.542;13.440;2022-10-14T05:20:37;10.70;99.90
2054;DHT22;1032;52.542;13.440;2022-10-14T05:23:04;10.90;99.90
2054;DHT22;1032;52.542;13.440;2022-10-14T05:25:31;10.80;99.90
2054;DHT22;1032;52.542;13.440;2022-10-14T05:27:59;11.00;99.90
2054;DHT22;1032;52.542;13.440;2022-10-14T05:30:26;11.10;99.90
2054;DHT22;1032;52.542;13.440;2022-10-14T05:32:53;10.90;99.90
2054;DHT22;1032;52.542;13.440;2022-10-14T05:35:20;11.10;99.90
2054;DHT22;1032;52.542;13.440;2022-10-14T05:37:47;10.80;99.90
2054;DHT22;1032;52.542;13.440;2022-10-14T05:40:14;11.40;99.90
2054;DHT22;1032;52.542;13.440;2022-10-14T05:42:40;11.30;99.90
2054;DHT22;1032;52.542;13.440;2022-10-14T05:45:09;11.30;99.90
2054;DHT22;1032;52.542;13.440;2022-10-14T05:47:43;11.10;99.90
2054;DHT22;1032;52.542;13.440;2022-10-14T05:50:14;11.20;99.90
2054;DHT22;1032;52.542;13.440;2022-10-14T05:52:43;11.40;99.90
2054;DHT22;1032;52.542;13.440;2022-10-14T05:55:16;11.10;99.90
2054;DHT22;1032;52.542;13.440;2022-10-14T05:57:44;11.70;99.90
2054;DHT22;1032;52.542;13.440;2022-10-14T06:00:17;11.50;99.90
2054;DHT22;1032;52.542;13.440;2022-10-14T06:02:48;11.40;99.90
2054;DHT22;1032;52.542;13.440;2022-10-14T06:05:16;11.30;99.90
2054;DHT22;1032;52.542;13.440;2022-10-14T06:07:43;11.50;99.90
2054;DHT22;1032;52.542;13.440;2022-10-14T06:10:09;11.60;99.90
2054;DHT22;1032;52.542;13.440;2022-10-14T06:12:36;11.60;99.90
2054;DHT22;1032;52.542;13.440;2022-10-14T06:15:04;11.60;99.90
2054;DHT22;1032;52.542;13.440;2022-10-14T06:17:32;11.70;99.90
2054;DHT22;1032;52.542;13.440;2022-10-14T06:19:59;11.70;99.90
2054;DHT22;1032;52.542;13.440;2022-10-14T06:22:26;11.50;99.90
2054;DHT22;1032;52.542;13.440;2022-10-14T06:24:53;12.00;99.90
2054;DHT22;1032;52.542;13.440;2022-10-14T06:27:20;11.80;99.90
2054;DHT22;1032;52.542;13.440;2022-10-14T06:29:46;11.80;99.90
2054;DHT22;1032;52.542;13.440;2022-10-14T06:32:13;11.70;99.90
2054;DHT22;1032;52.542;13.440;2022-10-14T06:34:41;12.40;99.90
2054;DHT22;1032;52.542;13.440;2022-10-14T06:37:07;12.20;99.90
2054;DHT22;1032;52.542;13.440;2022-10-14T06:39:34;12.20;99.90
2054;DHT22;1032;52.542;13.440;2022-10-14T06:42:01;11.80;99.90
2054;DHT22;1032;52.542;13.440;2022-10-14T06:44:28;11.90;99.90
2054;DHT22;1032;52.542;13.440;2022-10-14T06:46:54;11.90;99.90
2054;DHT22;1032;52.542;13.440;2022-10-14T06:49:21;11.80;99.90
2054;DHT22;1032;52.542;13.440;2022-10-14T06:51:48;12.20;99.90
2054;DHT22;1032;52.542;13.440;2022-10-14T06:54:15;12.50;99.90
2054;DHT22;1032;52.542;13.440;2022-10-14T06:56:42;12.20;99.90
2054;DHT22;1032;52.542;13.440;2022-10-14T06:59:09;12.50;99.90
2054;DHT22;1032;52.542;13.440;2022-10-14T07:01:35;12.20;99.90
2054;DHT22;1032;52.542;13.440;2022-10-14T07:04:03;12.40;99.90
2054;DHT22;1032;52.542;13.440;2022-10-14T07:06:30;12.50;99.90
2054;DHT22;1032;52.542;13.440;2022-10-14T07:08:58;12.50;99.90
2054;DHT22;1032;52.542;13.440;2022-10-14T07:11:25;12.40;99.90
2054;DHT22;1032;52.542;13.440;2022-10-14T07:13:52;12.40;99.90
2054;DHT22;1032;52.542;13.440;2022-10-14T07:16:20;12.70;99.90
2054;DHT22;1032;52.542;13.440;2022-10-14T07:18:47;13.00;99.90
2054;DHT22;1032;52.542;13.440;2022-10-14T07:21:13;13.10;99.90
2054;DHT22;1032;52.542;13.440;2022-10-14T07:23:40;12.70;99.90
2054;DHT22;1032;52.542;13.440;2022-10-14T07:26:08;13.00;99.90
2054;DHT22;1032;52.542;13.440;2022-10-14T07:28:35;12.70;99.90
2054;DHT22;1032;52.542;13.440;2022-10-14T07:31:03;13.00;99.90
2054;DHT22;1032;52.542;13.440;2022-10-14T07:33:30;12.80;99.90
2054;DHT22;1032;52.542;13.440;2022-10-14T07:36:00;13.20;99.90
2054;DHT22;1032;52.542;13.440;2022-10-14T07:38:27;13.00;99.90
2054;DHT22;1032;52.542;13.440;2022-10-14T07:40:58;13.10;99.90
2054;DHT22;1032;52.542;13.440;2022-10-14T07:43:28;12.70;99.90
2054;DHT22;1032;52.542;13.440;2022-10-14T07:45:55;13.40;99.90
2054;DHT22;1032;52.542;13.440;2022-10-14T07:48:26;12.80;99.90
2054;DHT22;1032;52.542;13.440;2022-10-14T07:50:53;13.20;99.90
2054;DHT22;1032;52.542;13.440;2022-10-14T07:53:20;12.80;99.90
2054;DHT22;1032;52.542;13.440;2022-10-14T07:55:47;13.90;99.90
2054;DHT22;1032;52.542;13.440;2022-10-14T07:58:18;13.40;99.90
2054;DHT22;1032;52.542;13.440;2022-10-14T08:00:46;13.40;99.90
2054;DHT22;1032;52.542;13.440;2022-10-14T08:03:13;13.40;99.90
2054;DHT22;1032;52.542;13.440;2022-10-14T08:05:40;13.60;99.90
2054;DHT22;1032;52.542;13.440;2022-10-14T08:08:06;13.60;99.90
2054;DHT22;1032;52.542;13.440;2022-10-14T08:10:34;13.60;99.90
2054;DHT22;1032;52.542;13.440;2022-10-14T08:13:00;13.60;99.90
2054;DHT22;1032;52.542;13.440;2022-10-14T08:15:27;13.80;99.90
2054;DHT22;1032;52.542;13.440;2022-10-14T08:17:56;13.60;99.90
2054;DHT22;1032;52.542;13.440;2022-10-14T08:20:22;13.90;99.90
2054;DHT22;1032;52.542;13.440;2022-10-14T08:22:49;13.80;99.90
2054;DHT22;1032;52.542;13.440;2022-10-14T08:25:15;13.90;99.90
2054;DHT22;1032;52.542;13.440;2022-10-14T08:27:42;13.90;99.90
2054;DHT22;1032;52.542;13.440;2022-10-14T08:30:10;14.10;99.90
2054;DHT22;1032;52.542;13.440;2022-10-14T08:32:36;13.80;99.90
2054;DHT22;1032;52.542;13.440;2022-10-14T08:35:05;14.00;99.90
2054;DHT22;1032;52.542;13.440;2022-10-14T08:37:32;14.20;99.90
2054;DHT22;1032;52.542;13.440;2022-10-14T08:39:59;13.90;99.90
2054;DHT22;1032;52.542;13.440;2022-10-14T08:42:36;14.10;99.90
2054;DHT22;1032;52.542;13.440;2022-10-14T08:45:08;13.80;99.90
2054;DHT22;1032;52.542;13.440;2022-10-14T08:47:38;14.00;99.90
2054;DHT22;1032;52.542;13.440;2022-10-14T08:50:19;13.40;99.90
2054;DHT22;1032;52.542;13.440;2022-10-14T08:52:50;14.00;99.90
2054;DHT22;1032;52.542;13.440;2022-10-14T08:55:25;14.00;99.90
2054;DHT22;1032;52.542;13.440;2022-10-14T08:57:56;14.30;99.90
2054;DHT22;1032;52.542;13.440;2022-10-14T09:00:25;14.60;99.90
2054;DHT22;1032;52.542;13.440;2022-10-14T09:02:53;14.60;99.90
2054;DHT22;1032;52.542;13.440;2022-10-14T09:05:23;14.50;99.90
2054;DHT22;1032;52.542;13.440;2022-10-14T09:07:53;14.70;99.90
2054;DHT22;1032;52.542;13.440;2022-10-14T09:10:26;14.70;99.90
2054;DHT22;1032;52.542;13.440;2022-10-14T09:13:00;15.00;99.90
2054;DHT22;1032;52.542;13.440;2022-10-14T09:15:33;14.90;99.90
2054;DHT22;1032;52.542;13.440;2022-10-14T09:18:03;15.30;99.90
2054;DHT22;1032;52.542;13.440;2022-10-14T09:20:32;14.90;99.90
2054;DHT22;1032;52.542;13.440;2022-10-14T09:23:11;14.90;99.90
2054;DHT22;1032;52.542;13.440;2022-10-14T09:25:44;15.30;99.90
2054;DHT22;1032;52.542;13.440;2022-10-14T09:28:13;15.10;99.90
2054;DHT22;1032;52.542;13.440;2022-10-14T09:30:40;15.10;99.90
2054;DHT22;1032;52.542;13.440;2022-10-14T09:33:13;15.70;99.90
2054;DHT22;1032;52.542;13.440;2022-10-14T09:35:43;15.20;99.90
2054;DHT22;1032;52.542;13.440;2022-10-14T09:38:10;15.50;99.90
2054;DHT22;1032;52.542;13.440;2022-10-14T09:40:40;15.00;99.90
2054;DHT22;1032;52.542;13.440;2022-10-14T09:43:15;15.60;99.90
2054;DHT22;1032;52.542;13.440;2022-10-14T09:45:47;15.30;99.90
2054;DHT22;1032;52.542;13.440;2022-10-14T09:48:17;15.30;99.90
2054;DHT22;1032;52.542;13.440;2022-10-14T09:50:50;15.30;99.90
2054;DHT22;1032;52.542;13.440;2022-10-14T09:53:23;15.30;99.90
2054;DHT22;1032;52.542;13.440;2022-10-14T09:55:53;15.30;99.90
2054;DHT22;1032;52.542;13.440;2022-10-14T09:58:28;14.80;99.90
2054;DHT22;1032;52.542;13.440;2022-10-14T10:00:56;15.90;99.90
2054;DHT22;1032;52.542;13.440;2022-10-14T10:03:25;15.30;99.90
2054;DHT22;1032;52.542;13.440;2022-10-14T10:06:01;15.40;99.90
2054;DHT22;1032;52.542;13.440;2022-10-14T10:08:28;15.30;99.90
2054;DHT22;1032;52.542;13.440;2022-10-14T10:11:00;15.40;99.90
2054;DHT22;1032;52.542;13.440;2022-10-14T10:13:32;16.00;99.90
2054;DHT22;1032;52.542;13.440;2022-10-14T10:16:01;15.60;99.90
2054;DHT22;1032;52.542;13.440;2022-10-14T10:18:28;15.60;99.90
2054;DHT22;1032;52.542;13.440;2022-10-14T10:21:05;15.30;99.90
2054;DHT22;1032;52.542;13.440;2022-10-14T10:23:34;15.60;99.90
2054;DHT22;1032;52.542;13.440;2022-10-14T10:26:14;15.70;99.90
2054;DHT22;1032;52.542;13.440;2022-10-14T10:28:45;15.80;99.90
2054;DHT22;1032;52.542;13.440;2022-10-14T10:31:23;15.70;99.90
2054;DHT22;1032;52.542;13.440;2022-10-14T10:33:57;15.70;99.90
2054;DHT22;1032;52.542;13.440;2022-10-14T10:36:29;15.70;99.90
2054;DHT22;1032;52.542;13.440;2022-10-14T10:38:58;15.90;99.90
2054;DHT22;1032;52.542;13.440;2022-10-14T10:41:44;15.70;99.90
2054;DHT22;1032;52.542;13.440;2022-10-14T10:44:33;16.00;99.90
2054;DHT22;1032;52.542;13.440;2022-10-14T10:47:13;16.30;99.90
2054;DHT22;1032;52.542;13.440;2022-10-14T10:49:54;16.20;99.90
2054;DHT22;1032;52.542;13.440;2022-10-14T10:52:33;16.30;99.90
2054;DHT22;1032;52.542;13.440;2022-10-14T10:55:12;16.40;99.90
2054;DHT22;1032;52.542;13.440;2022-10-14T10:57:50;16.40;99.90
2054;DHT22;1032;52.542;13.440;2022-10-14T11:00:20;16.50;99.90
2054;DHT22;1032;52.542;13.440;2022-10-14T11:03:00;16.60;99.90
2054;DHT22;1032;52.542;13.440;2022-10-14T11:05:44;16.60;99.90
2054;DHT22;1032;52.542;13.440;2022-10-14T11:08:36;16.70;99.90
2054;DHT22;1032;52.542;13.440;2022-10-14T11:11:25;16.90;99.90
2054;DHT22;1032;52.542;13.440;2022-10-14T11:14:22;16.90;99.90
2054;DHT22;1032;52.542;13.440;2022-10-14T11:16:56;17.10;99.90
2054;DHT22;1032;52.542;13.440;2022-10-14T11:19:33;17.30;99.90
2054;DHT22;1032;52.542;13.440;2022-10-14T11:22:06;17.30;99.90
2054;DHT22;1032;52.542;13.440;2022-10-14T11:24:43;17.40;99.90
2054;DHT22;1032;52.542;13.440;2022-10-14T11:27:25;17.40;99.90
2054;DHT22;1032;52.542;13.440;2022-10-14T11:30:14;17.50;99.90
2054;DHT22;1032;52.542;13.440;2022-10-14T11:33:01;17.60;99.90
2054;DHT22;1032;52.542;13.440;2022-10-14T11:35:36;17.50;99.90
2054;DHT22;1032;52.542;13.440;2022-10-14T11:38:21;17.30;99.90
2054;DHT22;1032;52.542;13.440;2022-10-14T11:40:58;17.30;99.90
2054;DHT22;1032;52.542;13.440;2022-10-14T11:43:32;17.50;99.90
2054;DHT22;1032;52.542;13.440;2022-10-14T11:46:06;17.60;99.90
2054;DHT22;1032;52.542;13.440;2022-10-14T11:48:37;17.70;99.90
2054;DHT22;1032;52.542;13.440;2022-10-14T11:51:11;17.80;99.90
2054;DHT22;1032;52.542;13.440;2022-10-14T11:53:47;17.70;99.90
2054;DHT22;1032;52.542;13.440;2022-10-14T11:56:25;17.80;99.90
2054;DHT22;1032;52.542;13.440;2022-10-14T11:58:55;18.00;99.90
2054;DHT22;1032;52.542;13.440;2022-10-14T12:01:26;17.70;99.90
2054;DHT22;1032;52.542;13.440;2022-10-14T12:03:59;18.00;99.90
2054;DHT22;1032;52.542;13.440;2022-10-14T12:06:32;17.90;99.90
2054;DHT22;1032;52.542;13.440;2022-10-14T12:09:04;17.90;99.90
2054;DHT22;1032;52.542;13.440;2022-10-14T12:11:36;17.90;99.90
2054;DHT22;1032;52.542;13.440;2022-10-14T12:14:10;17.90;99.90
2054;DHT22;1032;52.542;13.440;2022-10-14T12:16:40;17.70;99.90
2054;DHT22;1032;52.542;13.440;2022-10-14T12:19:12;17.80;99.90
2054;DHT22;1032;52.542;13.440;2022-10-14T12:21:44;17.80;99.90
2054;DHT22;1032;52.542;13.440;2022-10-14T12:24:16;18.20;99.90
2054;DHT22;1032;52.542;13.440;2022-10-14T12:26:50;17.60;99.90
2054;DHT22;1032;52.542;13.440;2022-10-14T12:29:19;18.00;99.90
2054;DHT22;1032;52.542;13.440;2022-10-14T12:31:49;18.00;99.90
2054;DHT22;1032;52.542;13.440;2022-10-14T12:34:34;18.10;99.90
2054;DHT22;1032;52.542;13.440;2022-10-14T12:40:27;18.10;99.90
2054;DHT22;1032;52.542;13.440;2022-10-14T12:42:59;18.20;99.90
2054;DHT22;1032;52.542;13.440;2022-10-14T12:45:28;18.20;99.90
2054;DHT22;1032;52.542;13.440;2022-10-14T12:48:06;17.90;99.90
2054;DHT22;1032;52.542;13.440;2022-10-14T12:50:37;17.90;99.90
2054;DHT22;1032;52.542;13.440;2022-10-14T12:53:07;17.70;99.90
2054;DHT22;1032;52.542;13.440;2022-10-14T12:55:47;18.20;99.90
2054;DHT22;1032;52.542;13.440;2022-10-14T12:58:22;18.20;99.90
2054;DHT22;1032;52.542;13.440;2022-10-14T13:00:53;18.20;99.90
2054;DHT22;1032;52.542;13.440;2022-10-14T13:03:23;18.20;99.90
2054;DHT22;1032;52.542;13.440;2022-10-14T13:05:51;18.30;99.90
2054;DHT22;1032;52.542;13.440;2022-10-14T13:08:27;18.30;99.90
2054;DHT22;1032;52.542;13.440;2022-10-14T13:11:11;18.30;99.90
2054;DHT22;1032;52.542;13.440;2022-10-14T13:13:49;18.50;99.90
2054;DHT22;1032;52.542;13.440;2022-10-14T13:19:45;18.70;99.90
2054;DHT22;1032;52.542;13.440;2022-10-14T13:22:37;18.10;99.90
2054;DHT22;1032;52.542;13.440;2022-10-14T13:25:12;18.60;99.90
2054;DHT22;1032;52.542;13.440;2022-10-14T13:27:48;18.50;99.90
2054;DHT22;1032;52.542;13.440;2022-10-14T13:30:22;18.40;99.90
2054;DHT22;1032;52.542;13.440;2022-10-14T13:32:53;18.50;99.90
2054;DHT22;1032;52.542;13.440;2022-10-14T13:35:26;18.40;99.90
2054;DHT22;1032;52.542;13.440;2022-10-14T13:37:58;18.60;99.90
2054;DHT22;1032;52.542;13.440;2022-10-14T13:40:27;18.60;99.90
2054;DHT22;1032;52.542;13.440;2022-10-14T13:42:57;18.40;99.90
2054;DHT22;1032;52.542;13.440;2022-10-14T13:45:31;18.30;99.90
2054;DHT22;1032;52.542;13.440;2022-10-14T13:47:59;18.40;99.90
2054;DHT22;1032;52.542;13.440;2022-10-14T13:50:30;18.30;99.90
2054;DHT22;1032;52.542;13.440;2022-10-14T13:53:02;18.10;99.90
2054;DHT22;1032;52.542;13.440;2022-10-14T13:55:29;18.10;99.90
2054;DHT22;1032;52.542;13.440;2022-10-14T13:58:00;18.30;99.90
2054;DHT22;1032;52.542;13.440;2022-10-14T14:00:30;18.30;99.90
2054;DHT22;1032;52.542;13.440;2022-10-14T14:02:57;18.30;99.90
2054;DHT22;1032;52.542;13.440;2022-10-14T14:05:24;18.40;99.90
2054;DHT22;1032;52.542;13.440;2022-10-14T14:07:51;18.30;99.90
2054;DHT22;1032;52.542;13.440;2022-10-14T14:10:21;18.40;99.90
2054;DHT22;1032;52.542;13.440;2022-10-14T14:12:48;18.40;99.90
2054;DHT22;1032;52.542;13.440;2022-10-14T14:15:20;18.40;99.90
2054;DHT22;1032;52.542;13.440;2022-10-14T14:17:50;18.50;99.90
2054;DHT22;1032;52.542;13.440;2022-10-14T14:20:21;18.30;99.90
2054;DHT22;1032;52.542;13.440;2022-10-14T14:22:48;18.20;99.90
2054;DHT22;1032;52.542;13.440;2022-10-14T14:25:21;18.50;99.90
2054;DHT22;1032;52.542;13.440;2022-10-14T14:27:50;18.50;99.90
2054;DHT22;1032;52.542;13.440;2022-10-14T14:30:25;18.60;99.90
2054;DHT22;1032;52.542;13.440;2022-10-14T14:32:56;18.30;99.90
2054;DHT22;1032;52.542;13.440;2022-10-14T14:35:23;18.20;99.90
2054;DHT22;1032;52.542;13.440;2022-10-14T14:37:50;18.20;99.90
2054;DHT22;1032;52.542;13.440;2022-10-14T14:40:19;18.20;99.90
2054;DHT22;1032;52.542;13.440;2022-10-14T14:42:49;18.20;99.90
2054;DHT22;1032;52.542;13.440;2022-10-14T14:45:20;18.20;99.90
2054;DHT22;1032;52.542;13.440;2022-10-14T14:47:52;18.10;99.90
2054;DHT22;1032;52.542;13.440;2022-10-14T14:50:28;18.10;99.90
2054;DHT22;1032;52.542;13.440;2022-10-14T14:52:58;18.10;99.90
2054;DHT22;1032;52.542;13.440;2022-10-14T14:55:33;17.80;99.90
2054;DHT22;1032;52.542;13.440;2022-10-14T14:58:01;18.10;99.90
2054;DHT22;1032;52.542;13.440;2022-10-14T15:00:28;18.10;99.90
2054;DHT22;1032;52.542;13.440;2022-10-14T15:02:59;18.50;99.90
2054;DHT22;1032;52.542;13.440;2022-10-14T15:05:28;18.10;99.90
2054;DHT22;1032;52.542;13.440;2022-10-14T15:07:55;18.10;99.90
2054;DHT22;1032;52.542;13.440;2022-10-14T15:10:24;18.10;99.90
2054;DHT22;1032;52.542;13.440;2022-10-14T15:12:53;18.00;99.90
2054;DHT22;1032;52.542;13.440;2022-10-14T15:15:25;17.90;99.90
2054;DHT22;1032;52.542;13.440;2022-10-14T15:18:06;17.90;99.90
2054;DHT22;1032;52.542;13.440;2022-10-14T15:20:38;17.80;99.90
2054;DHT22;1032;52.542;13.440;2022-10-14T15:23:37;18.10;99.90
2054;DHT22;1032;52.542;13.440;2022-10-14T15:26:17;17.60;99.90
2054;DHT22;1032;52.542;13.440;2022-10-14T15:29:10;17.60;99.90
2054;DHT22;1032;52.542;13.440;2022-10-14T15:31:39;17.60;99.90
2054;DHT22;1032;52.542;13.440;2022-10-14T15:34:14;17.40;99.90
2054;DHT22;1032;52.542;13.440;2022-10-14T15:36:43;17.10;99.90
2054;DHT22;1032;52.542;13.440;2022-10-14T15:39:11;17.20;99.90
2054;DHT22;1032;52.542;13.440;2022-10-14T15:41:38;17.30;99.90
2054;DHT22;1032;52.542;13.440;2022-10-14T15:44:05;17.10;99.90
2054;DHT22;1032;52.542;13.440;2022-10-14T15:46:34;17.00;99.90
2054;DHT22;1032;52.542;13.440;2022-10-14T15:49:22;16.80;99.90
2054;DHT22;1032;52.542;13.440;2022-10-14T15:51:52;16.90;99.90
2054;DHT22;1032;52.542;13.440;2022-10-14T15:54:18;16.90;99.90
2054;DHT22;1032;52.542;13.440;2022-10-14T15:56:45;16.80;99.90
2054;DHT22;1032;52.542;13.440;2022-10-14T15:59:12;17.20;99.90
2054;DHT22;1032;52.542;13.440;2022-10-14T16:01:41;16.80;99.90
2054;DHT22;1032;52.542;13.440;2022-10-14T16:04:14;16.70;99.90
2054;DHT22;1032;52.542;13.440;2022-10-14T16:06:41;16.60;99.90
2054;DHT22;1032;52.542;13.440;2022-10-14T16:09:09;16.60;99.90
2054;DHT22;1032;52.542;13.440;2022-10-14T16:11:36;16.60;99.90
2054;DHT22;1032;52.542;13.440;2022-10-14T16:14:03;16.50;99.90
2054;DHT22;1032;52.542;13.440;2022-10-14T16:16:33;16.80;99.90
2054;DHT22;1032;52.542;13.440;2022-10-14T16:19:01;16.40;99.90